Fire Weather Observation
Issued by NWS Grand Junction, CO

Home | Current Version | Previous Version | Graphics & Text | Print | Product List | Glossary On
Versions: 1 2 3 4 5 6 7 8 9 10 11 12 13 14 15 16 17 18 19 20 21 22 23 24 25 26 27 28 29 30 31 32 33 34 35 36 37 38 39 40 41 42 43 44 45 46 47 48 49 50
000
SHUS65 KGJT 152019
FWOGJT

SHUS65 KGJT DDHHMM
FWOGJT

DAILY FIRE WEATHER OBSERVATION
NATIONAL WEATHER SERVICE GRAND JUNCTION CO
212 PM MDT WED APR 15 2015

STATE OF THE WEATHER (W)               3
DRY BULB TEMPERATURE                   42   DEGREES FAHRENHEIT
RELATIVE HUMIDITY (RH)                 23   PERCENT
LIGHTNING ACTIVITY LEVEL
  (LAL - MIDNIGHT TO 2 PM)             1
WIND DIRECTION                         360  DEGREES (C IF CALM)
WIND SPEED                             10   MPH
MAX TEMP (2 PM - 2 PM)                 76   DEGREES FAHRENHEIT
MIN TEMP (2 PM - 2 PM)                 36   DEGREES FAHRENHEIT
MAX RH (2 PM - 2 PM)                   38   PERCENT
MIN RH (2 PM - 2 PM)                   10   PERCENT
PCPN DURATION                          0.0  HOURS
PCPN AMT (2 PM - 2 PM)                 0.0  INCHES
LAL (2 PM - 2 PM)                      3

$$

METAR KGJT 151953Z 35009KT 10SM BKN090 OVC110 06/M14 A2995 RMK
      AO2 SLP121 T00561139



USA.gov is the U.S. government's official web portal to all federal, state and local government web resources and services.